Time;durP1;ratioP1;P1;durP2;ratioP2;P2;SDS_P1;SDS_P2;PMS_P1;PMS_P2;Temp;Humidity;BMP_temperature;BMP_pressure;BME280_temperature;BME280_humidity;BME280_pressure;Samples;Min_cycle;Max_cycle;Signal;HPM_P1;HPM_P2
2021/03/13 00:01:38;;;;;;;0.50;0.50;;;3.40;99.90;;;;;;6142462;23;20173;-80
2021/03/13 00:04:10;;;;;;;0.50;0.50;;;3.40;99.90;;;;;;6141785;23;20175;-81
2021/03/13 00:06:40;;;;;;;0.50;0.50;;;3.10;99.90;;;;;;6133433;23;20238;-80
2021/03/13 00:09:09;;;;;;;0.50;0.50;;;2.50;99.90;;;;;;6130534;23;20178;-81
2021/03/13 00:11:37;;;;;;;0.50;0.50;;;6.30;99.90;;;;;;6131002;23;20265;-80
2021/03/13 00:14:05;;;;;;;0.50;0.50;;;2.80;99.90;;;;;;6131867;23;20183;-81
2021/03/13 00:16:36;;;;;;;0.50;0.50;;;3.10;99.90;;;;;;6134407;22;20691;-81
2021/03/13 00:19:13;;;;;;;;;;;;;;;;;;;;;
2021/03/13 00:21:56;;;;;;;0.50;0.50;;;4.90;99.90;;;;;;6144824;23;20154;-80
2021/03/13 00:24:47;;;;;;;0.50;0.50;;;3.80;99.90;;;;;;6139299;22;20178;-81
2021/03/13 00:27:14;;;;;;;0.47;0.47;;;5.20;99.90;;;;;;6142131;23;20551;-81
2021/03/13 00:29:40;;;;;;;0.50;0.50;;;5.60;99.90;;;;;;6133999;22;20178;-81
2021/03/13 00:32:07;;;;;;;0.50;0.50;;;3.20;99.90;;;;;;6122181;23;20174;-80
2021/03/13 00:34:33;;;;;;;0.40;0.40;;;5.30;99.90;;;;;;6118239;23;20194;-80
2021/03/13 00:37:00;;;;;;;0.50;0.50;;;3.00;99.90;;;;;;6116998;23;20198;-80
2021/03/13 00:39:27;;;;;;;0.50;0.50;;;5.50;99.90;;;;;;6117118;23;20538;-80
2021/03/13 00:41:53;;;;;;;0.50;0.50;;;3.10;99.90;;;;;;6116566;23;20264;-80
2021/03/13 00:44:19;;;;;;;0.50;0.50;;;3.00;99.90;;;;;;6116845;23;20213;-80
2021/03/13 00:46:45;;;;;;;0.50;0.50;;;2.70;99.90;;;;;;6116815;23;20266;-80
2021/03/13 00:49:12;;;;;;;0.50;0.50;;;2.90;99.90;;;;;;6116426;23;20183;-80
2021/03/13 00:51:41;;;;;;;0.50;0.50;;;3.00;99.90;;;;;;6116673;22;20203;-80
2021/03/13 00:54:08;;;;;;;0.50;0.50;;;2.70;99.90;;;;;;6116967;23;20193;-80
2021/03/13 00:56:35;;;;;;;0.50;0.50;;;2.90;99.90;;;;;;6118832;23;20199;-80
2021/03/13 00:59:01;;;;;;;0.50;0.50;;;2.90;99.90;;;;;;6118258;23;20182;-80
2021/03/13 02:30:00;;;;;;;0.50;0.50;;;2.80;99.90;;;;;;6239386;23;20239;-80
2021/03/13 02:32:35;;;;;;;0.50;0.50;;;1.90;99.90;;;;;;6238531;23;20179;-80
2021/03/13 02:35:09;;;;;;;0.50;0.50;;;1.00;99.90;;;;;;6238689;23;20148;-80
2021/03/13 02:37:57;;;;;;;;;;;;;;;;;;;;;
2021/03/13 02:40:31;;;;;;;0.50;0.50;;;5.20;99.90;;;;;;6239609;23;20151;-80
2021/03/13 02:43:05;;;;;;;0.50;0.50;;;4.00;99.90;;;;;;6240999;23;20168;-80
2021/03/13 02:45:51;;;;;;;;;;;;;;;;;;;;;
2021/03/13 02:48:36;;;;;;;;;;;;;;;;;;;;;
2021/03/13 02:51:15;;;;;;;0.50;0.50;;;2.60;99.90;;;;;;6243356;23;20248;-80
2021/03/13 02:54:14;;;;;;;0.50;0.50;;;2.60;99.90;;;;;;6243335;23;20160;-80
2021/03/13 02:57:13;;;;;;;0.50;0.50;;;2.80;99.90;;;;;;6202374;22;20214;-80
2021/03/13 03:02:58;;;;;;;0.50;0.50;;;3.00;99.90;;;;;;6111924;22;20207;-81
2021/03/13 03:05:28;;;;;;;0.50;0.50;;;3.90;99.90;;;;;;6118380;23;20171;-80
2021/03/13 03:08:24;;;;;;;;;;;;;;;;;;;;;
2021/03/13 03:10:58;;;;;;;0.50;0.50;;;4.50;99.90;;;;;;6119776;23;20207;-81
2021/03/13 03:13:45;;;;;;;0.50;0.50;;;2.30;99.90;;;;;;6118614;23;20183;-80
2021/03/13 03:16:35;;;;;;;0.50;0.50;;;3.10;99.90;;;;;;6118878;23;20203;-81
2021/03/13 03:19:22;;;;;;;;;;;;;;;;;;;;;
2021/03/13 03:21:54;;;;;;;0.50;0.50;;;5.70;99.90;;;;;;6118747;23;20226;-80
2021/03/13 03:58:35;;;;;;;0.47;0.47;;;2.90;99.90;;;;;;6065710;22;20195;-80
2021/03/13 04:04:00;;;;;;;0.50;0.50;;;2.90;99.90;;;;;;6114643;22;20199;-80
2021/03/13 04:06:41;;;;;;;0.50;0.50;;;7.30;99.90;;;;;;6119442;23;20155;-79
2021/03/13 04:09:30;;;;;;;0.50;0.50;;;4.70;99.90;;;;;;6120445;22;20171;-79
2021/03/13 04:12:21;;;;;;;;;;;;;;;;;;;;;
2021/03/13 04:15:01;;;;;;;0.50;0.50;;;2.60;99.90;;;;;;6118981;23;20180;-80
2021/03/13 04:17:43;;;;;;;0.50;0.50;;;2.70;99.90;;;;;;6102411;22;20966;-81
2021/03/13 04:30:53;;;;;;;0.50;0.50;;;3.10;99.90;;;;;;6240721;22;20221;-79
2021/03/13 04:33:21;;;;;;;0.50;0.50;;;7.10;99.90;;;;;;6249259;23;20179;-78
2021/03/13 04:35:49;;;;;;;0.50;0.50;;;2.40;99.90;;;;;;6250746;23;20215;-79
2021/03/13 04:38:18;;;;;;;0.50;0.50;;;4.10;99.90;;;;;;6247114;23;20180;-78
2021/03/13 04:40:45;;;;;;;0.40;0.40;;;4.60;99.90;;;;;;6247768;22;20171;-79
2021/03/13 04:43:15;;;;;;;0.50;0.50;;;2.50;99.90;;;;;;6247309;23;20180;-79
2021/03/13 04:45:41;;;;;;;0.50;0.50;;;2.60;99.90;;;;;;6246954;23;20172;-79
2021/03/13 04:48:10;;;;;;;0.50;0.50;;;2.90;99.90;;;;;;6247021;23;20235;-79
2021/03/13 04:50:37;;;;;;;0.50;0.50;;;2.90;99.90;;;;;;6247068;23;20246;-78
2021/03/13 04:53:03;;;;;;;0.50;0.50;;;4.60;99.90;;;;;;6246688;23;20397;-79
2021/03/13 04:55:29;;;;;;;0.50;0.50;;;3.10;99.90;;;;;;6246525;22;20180;-79
2021/03/13 04:57:56;;;;;;;0.50;0.50;;;3.00;99.90;;;;;;6245656;23;20187;-79
2021/03/13 05:00:23;;;;;;;0.50;0.50;;;2.90;99.90;;;;;;6244707;23;20512;-79
2021/03/13 05:02:50;;;;;;;0.50;0.50;;;3.10;99.90;;;;;;6245732;22;20180;-79
2021/03/13 05:05:17;;;;;;;0.50;0.50;;;2.80;99.90;;;;;;6141574;22;20555;-79
2021/03/13 05:15:46;;;;;;;0.50;0.50;;;3.10;99.90;;;;;;6090559;22;20211;-79
2021/03/13 05:18:40;;;;;;;0.50;0.50;;;6.50;99.90;;;;;;6120971;22;20164;-80
2021/03/13 05:36:53;;;;;;;0.50;0.50;;;3.20;99.90;;;;;;6093284;22;20210;-80
2021/03/13 05:39:29;;;;;;;0.47;0.47;;;2.10;99.90;;;;;;6115062;23;20185;-79
2021/03/13 05:42:26;;;;;;;0.50;0.50;;;2.50;99.90;;;;;;6116173;23;20170;-80
2021/03/13 05:45:02;;;;;;;0.43;0.43;;;3.90;99.90;;;;;;6087725;23;20183;-80
2021/03/13 05:47:32;;;;;;;0.50;0.50;;;5.20;99.90;;;;;;6099242;23;20171;-80
2021/03/13 05:50:10;;;;;;;0.40;0.40;;;2.10;99.90;;;;;;6117172;23;20172;-80
2021/03/13 05:52:45;;;;;;;0.50;0.50;;;5.00;99.90;;;;;;6117541;23;20214;-80
2021/03/13 05:55:30;;;;;;;0.50;0.50;;;3.70;99.90;;;;;;6117419;23;20201;-80
2021/03/13 05:58:01;;;;;;;0.50;0.50;;;5.80;99.90;;;;;;6116057;23;20167;-80
2021/03/13 06:00:30;;;;;;;0.40;0.40;;;2.60;99.90;;;;;;6115777;23;20174;-80
2021/03/13 06:03:13;;;;;;;;;;;;;;;;;;;;;
2021/03/13 06:22:12;;;;;;;;;;;;;;;;;;;;;
2021/03/13 06:24:55;;;;;;;;;;;;;;;;;;;;;
2021/03/13 06:27:47;;;;;;;0.50;0.50;;;4.50;99.90;;;;;;6148792;23;20218;-79
2021/03/13 06:51:25;;;;;;;0.40;0.40;;;3.80;99.90;;;;;;6108056;22;20214;-82
2021/03/13 06:54:19;;;;;;;0.50;0.50;;;4.00;99.90;;;;;;6112969;23;20167;-82
2021/03/13 06:57:00;;;;;;;0.50;0.50;;;4.00;99.90;;;;;;6112251;23;20198;-81
2021/03/13 06:59:31;;;;;;;0.40;0.40;;;2.70;99.90;;;;;;6109670;22;20167;-80
2021/03/13 07:02:01;;;;;;;0.50;0.50;;;4.40;99.90;;;;;;6106937;23;20528;-81
2021/03/13 07:04:32;;;;;;;0.40;0.40;;;3.00;99.90;;;;;;6107644;23;20175;-81
2021/03/13 07:07:06;;;;;;;0.50;0.50;;;5.10;99.90;;;;;;6106379;23;20167;-81
2021/03/13 07:09:52;;;;;;;0.40;0.40;;;5.60;99.90;;;;;;6105619;23;20246;-81
2021/03/13 07:40:49;;;;;;;0.40;0.40;;;4.20;99.90;;;;;;6111238;22;20215;-81
2021/03/13 07:43:17;;;;;;;0.50;0.50;;;4.40;99.90;;;;;;6103389;23;20187;-80
2021/03/13 07:45:47;;;;;;;0.43;0.43;;;5.20;99.90;;;;;;6090369;23;20190;-80
2021/03/13 07:48:15;;;;;;;0.40;0.40;;;4.20;99.90;;;;;;6090235;23;20168;-78
2021/03/13 07:50:46;;;;;;;0.45;0.45;;;4.00;99.90;;;;;;6089470;23;20199;-80
2021/03/13 07:58:47;;;;;;;0.50;0.50;;;4.30;99.90;;;;;;6097036;22;21641;-81
2021/03/13 08:01:15;;;;;;;0.50;0.50;;;4.50;99.90;;;;;;6065628;22;20245;-81
2021/03/13 08:03:45;;;;;;;0.40;0.40;;;8.00;99.90;;;;;;6113485;23;20160;-82
2021/03/13 08:06:15;;;;;;;0.40;0.40;;;5.40;99.90;;;;;;6107602;22;20194;-81
2021/03/13 08:08:50;;;;;;;0.40;0.40;;;4.60;99.90;;;;;;6118345;23;20194;-82
2021/03/13 08:11:48;;;;;;;0.50;0.50;;;7.80;99.90;;;;;;6097225;22;20274;-83
2021/03/13 08:17:46;;;;;;;0.50;0.50;;;6.90;99.90;;;;;;6134733;22;20215;-83
2021/03/13 08:23:19;;;;;;;0.40;0.40;;;4.60;99.90;;;;;;6097209;22;20202;-88
2021/03/13 08:34:01;;;;;;;0.40;0.40;;;4.40;99.90;;;;;;6120616;23;20154;-90
2021/03/13 10:40:50;;;;;;;0.50;0.50;;;4.90;99.90;;;;;;6162181;22;20234;-84
2021/03/13 10:43:29;;;;;;;0.50;0.50;;;4.90;99.90;;;;;;6246201;23;20187;-85
2021/03/13 10:46:17;;;;;;;0.50;0.50;;;5.70;99.90;;;;;;6245271;23;20175;-84
2021/03/13 10:49:06;;;;;;;0.50;0.50;;;5.50;99.90;;;;;;6232902;23;20188;-84
2021/03/13 10:51:40;;;;;;;0.50;0.50;;;5.50;99.90;;;;;;6221759;23;20215;-83
2021/03/13 10:54:19;;;;;;;0.55;0.55;;;5.50;99.90;;;;;;6231942;23;20285;-84
2021/03/13 10:56:46;;;;;;;0.50;0.50;;;5.60;99.90;;;;;;6239634;23;20283;-84
2021/03/13 10:59:13;;;;;;;0.50;0.50;;;5.70;99.90;;;;;;6240249;23;20259;-83
2021/03/13 11:01:43;;;;;;;0.50;0.50;;;5.80;99.90;;;;;;6241056;23;20230;-83
2021/03/13 11:04:21;;;;;;;0.50;0.50;;;5.80;99.90;;;;;;6240636;22;20624;-84
2021/03/13 11:07:07;;;;;;;0.50;0.50;;;6.20;99.90;;;;;;6239198;23;20528;-83
2021/03/13 11:09:33;;;;;;;0.50;0.50;;;7.50;99.90;;;;;;6231920;22;20690;-83
2021/03/13 11:14:58;;;;;;;0.50;0.50;;;6.00;99.90;;;;;;6209470;22;20517;-83
2021/03/13 11:17:24;;;;;;;0.50;0.50;;;7.50;99.90;;;;;;6239594;23;20196;-83
2021/03/13 11:19:50;;;;;;;0.50;0.50;;;6.10;99.90;;;;;;6242769;23;20176;-83
2021/03/13 11:22:16;;;;;;;0.50;0.50;;;6.10;99.90;;;;;;6240762;23;20226;-83
2021/03/13 11:24:42;;;;;;;0.50;0.50;;;6.20;99.90;;;;;;6242232;23;20227;-84
2021/03/13 11:27:09;;;;;;;0.50;0.50;;;6.10;99.90;;;;;;6241955;23;20190;-83
2021/03/13 11:29:36;;;;;;;0.50;0.50;;;6.30;99.90;;;;;;6241719;23;20214;-83
2021/03/13 11:32:02;;;;;;;0.50;0.50;;;6.20;99.90;;;;;;6242299;23;20225;-83
2021/03/13 11:34:28;;;;;;;0.50;0.50;;;6.30;99.90;;;;;;6242012;23;20255;-83
2021/03/13 11:36:55;;;;;;;0.50;0.50;;;6.40;99.90;;;;;;6242786;23;20188;-84
2021/03/13 11:39:26;;;;;;;0.50;0.50;;;6.40;99.90;;;;;;6237681;23;20229;-83
2021/03/13 11:41:52;;;;;;;0.50;0.50;;;6.40;99.90;;;;;;6242677;23;20475;-82
2021/03/13 11:44:19;;;;;;;0.50;0.50;;;6.70;99.90;;;;;;6242653;22;20422;-82
2021/03/13 11:46:47;;;;;;;0.60;0.60;;;6.40;99.90;;;;;;6247395;23;20176;-85
2021/03/13 11:49:13;;;;;;;0.55;0.55;;;6.80;99.90;;;;;;6240826;23;20595;-87
2021/03/13 11:51:39;;;;;;;0.50;0.50;;;7.30;99.90;;;;;;6244408;23;20192;-85
2021/03/13 11:54:10;;;;;;;0.60;0.60;;;7.30;99.90;;;;;;6243975;22;20229;-87
2021/03/13 11:56:37;;;;;;;0.50;0.50;;;8.20;99.90;;;;;;6242891;22;20223;-86
2021/03/13 11:59:03;;;;;;;0.50;0.50;;;7.70;99.90;;;;;;6243564;23;20175;-82
2021/03/13 12:01:32;;;;;;;0.50;0.50;;;8.00;99.90;;;;;;6241848;23;20176;-82
2021/03/13 12:03:58;;;;;;;0.50;0.50;;;8.30;99.90;;;;;;6243877;23;20636;-87
2021/03/13 12:06:24;;;;;;;0.50;0.50;;;8.30;99.90;;;;;;6243205;23;20619;-82
2021/03/13 12:08:50;;;;;;;0.60;0.60;;;8.70;99.90;;;;;;6243899;23;20187;-84
2021/03/13 12:11:17;;;;;;;0.50;0.50;;;8.70;99.90;;;;;;6243043;23;20687;-84
2021/03/13 12:42:45;;;;;;;0.50;0.50;;;9.70;99.90;;;;;;6061647;22;20271;-84
2021/03/13 12:45:12;;;;;;;0.60;0.60;;;8.30;99.90;;;;;;6088908;23;20515;-83
2021/03/13 12:47:48;;;;;;;;;;;;;;;;;;;;;
2021/03/13 12:50:15;;;;;;;0.60;0.60;;;7.90;99.90;;;;;;6092367;23;20273;-83
2021/03/13 12:52:41;;;;;;;0.52;0.52;;;7.70;99.90;;;;;;6079960;23;20183;-84
2021/03/13 12:55:08;;;;;;;0.60;0.60;;;7.60;99.90;;;;;;6082807;23;20183;-84
2021/03/13 12:57:35;;;;;;;0.50;0.50;;;7.40;99.90;;;;;;6086948;23;20195;-84
2021/03/13 13:00:02;;;;;;;0.60;0.60;;;7.20;99.90;;;;;;6088084;23;20205;-84
2021/03/13 13:02:29;;;;;;;0.60;0.60;;;6.80;99.90;;;;;;6087844;23;20179;-84
2021/03/13 13:04:55;;;;;;;0.60;0.60;;;7.90;99.90;;;;;;6101560;22;20179;-83
2021/03/13 13:07:21;;;;;;;0.55;0.55;;;5.70;99.90;;;;;;6099905;23;20199;-84
2021/03/13 13:09:47;;;;;;;0.60;0.60;;;5.50;99.90;;;;;;6102134;23;20179;-84
2021/03/13 13:12:13;;;;;;;0.50;0.50;;;5.30;99.90;;;;;;6102307;23;20179;-84
2021/03/13 13:14:44;;;;;;;0.52;0.52;;;5.30;99.90;;;;;;6106277;23;20175;-83
2021/03/13 13:17:11;;;;;;;0.50;0.50;;;5.50;99.90;;;;;;6106560;23;20186;-84
2021/03/13 13:19:43;;;;;;;0.50;0.50;;;5.70;99.90;;;;;;6107537;23;20183;-84
2021/03/13 13:22:13;;;;;;;0.50;0.50;;;7.10;99.90;;;;;;6107151;23;20195;-84
2021/03/13 13:24:53;;;;;;;0.50;0.50;;;5.80;99.90;;;;;;6103594;23;20186;-83
2021/03/13 13:27:22;;;;;;;0.50;0.50;;;7.60;99.90;;;;;;6097418;23;20164;-83
2021/03/13 13:29:50;;;;;;;0.50;0.50;;;5.20;99.90;;;;;;6089189;23;20273;-86
2021/03/13 13:32:17;;;;;;;0.50;0.50;;;5.80;99.90;;;;;;6086316;23;20210;-85
2021/03/13 13:34:43;;;;;;;0.50;0.50;;;6.10;99.90;;;;;;6085357;23;20186;-86
2021/03/13 13:37:09;;;;;;;0.50;0.50;;;7.50;99.90;;;;;;6085684;23;20678;-85
2021/03/13 13:39:35;;;;;;;0.50;0.50;;;6.50;99.90;;;;;;6088180;23;20283;-86
2021/03/13 13:42:01;;;;;;;0.50;0.50;;;6.60;99.90;;;;;;6089408;23;20281;-86
2021/03/13 13:44:28;;;;;;;0.50;0.50;;;6.20;99.90;;;;;;6090139;23;20201;-87
2021/03/13 13:46:54;;;;;;;0.50;0.50;;;6.80;99.90;;;;;;6089275;23;20179;-86
2021/03/13 13:49:21;;;;;;;0.50;0.50;;;5.70;99.90;;;;;;6090484;23;20187;-86
2021/03/13 13:51:47;;;;;;;0.50;0.50;;;5.90;99.90;;;;;;6086815;23;20579;-86
2021/03/13 13:54:14;;;;;;;0.50;0.50;;;6.40;99.90;;;;;;6091060;23;20186;-85
2021/03/13 13:56:40;;;;;;;0.60;0.60;;;6.30;99.90;;;;;;6089662;23;20198;-85
2021/03/13 13:59:13;;;;;;;0.50;0.50;;;7.40;99.90;;;;;;6097213;23;20227;-94
2021/03/13 14:01:39;;;;;;;0.50;0.50;;;5.40;99.90;;;;;;6089046;23;20172;-85
2021/03/13 14:04:06;;;;;;;0.50;0.50;;;7.90;99.90;;;;;;6088671;23;20266;-85
2021/03/13 14:06:33;;;;;;;0.50;0.50;;;6.10;99.90;;;;;;6086204;23;20179;-85
2021/03/13 14:09:09;;;;;;;0.50;0.50;;;6.10;99.90;;;;;;6095296;23;20613;-91
2021/03/13 14:11:42;;;;;;;0.50;0.50;;;7.20;99.90;;;;;;6095703;23;20179;-86
2021/03/13 14:14:19;;;;;;;0.50;0.50;;;9.00;99.90;;;;;;6096825;23;20173;-87
2021/03/13 14:16:47;;;;;;;0.50;0.50;;;6.40;99.90;;;;;;6092515;23;20202;-85
2021/03/13 14:19:14;;;;;;;0.50;0.50;;;5.70;99.90;;;;;;6089180;23;20183;-85
2021/03/13 14:21:42;;;;;;;0.60;0.60;;;6.30;99.90;;;;;;6084733;23;20528;-77
2021/03/13 14:24:14;;;;;;;0.50;0.50;;;7.80;99.90;;;;;;6087972;23;20175;-85
2021/03/13 14:26:46;;;;;;;0.50;0.50;;;6.70;99.90;;;;;;6086363;23;20167;-85
2021/03/13 14:29:12;;;;;;;0.50;0.50;;;7.00;99.90;;;;;;6087554;23;20168;-86
2021/03/13 14:31:39;;;;;;;0.50;0.50;;;7.20;99.90;;;;;;6086048;23;20183;-85
2021/03/13 14:34:07;;;;;;;0.50;0.50;;;7.30;99.90;;;;;;6083657;23;20175;-85
2021/03/13 14:36:33;;;;;;;0.50;0.50;;;7.40;99.90;;;;;;6087662;23;20210;-85
2021/03/13 14:39:06;;;;;;;0.50;0.50;;;7.60;99.90;;;;;;6088127;23;20183;-85
2021/03/13 14:41:36;;;;;;;0.60;0.60;;;7.60;99.90;;;;;;6088153;23;20218;-86
2021/03/13 14:44:05;;;;;;;0.57;0.57;;;7.70;99.90;;;;;;6087468;23;20187;-86
2021/03/13 14:46:36;;;;;;;0.57;0.57;;;7.70;99.90;;;;;;6089311;23;20186;-84
2021/03/13 14:49:04;;;;;;;0.50;0.50;;;7.60;99.90;;;;;;6089126;23;20170;-84
2021/03/13 14:51:31;;;;;;;0.60;0.60;;;8.30;99.90;;;;;;6086745;23;20239;-84
2021/03/13 14:53:58;;;;;;;0.60;0.60;;;8.90;99.90;;;;;;6088662;23;20240;-84
2021/03/13 14:56:25;;;;;;;0.50;0.50;;;7.60;99.90;;;;;;6087923;23;20269;-84
2021/03/13 14:58:51;;;;;;;0.60;0.60;;;7.20;99.90;;;;;;6089159;23;20183;-84
2021/03/13 15:01:17;;;;;;;0.60;0.60;;;6.60;99.90;;;;;;6088235;23;20183;-84
2021/03/13 15:03:44;;;;;;;0.52;0.52;;;7.10;99.90;;;;;;6089542;23;20183;-86
2021/03/13 15:06:10;;;;;;;0.50;0.50;;;6.60;99.90;;;;;;6092424;23;20471;-86
2021/03/13 15:08:37;;;;;;;0.52;0.52;;;6.60;99.90;;;;;;6093840;23;20465;-85
2021/03/13 15:11:04;;;;;;;0.60;0.60;;;5.80;99.90;;;;;;6095199;23;20175;-86
2021/03/13 15:13:32;;;;;;;0.50;0.50;;;6.90;99.90;;;;;;6097297;23;20254;-86
2021/03/13 15:15:58;;;;;;;0.50;0.50;;;6.50;99.90;;;;;;6096570;23;20179;-87
2021/03/13 15:18:28;;;;;;;0.50;0.50;;;5.10;99.90;;;;;;6109414;23;20199;-86
2021/03/13 15:20:57;;;;;;;0.50;0.50;;;4.70;99.90;;;;;;6113126;23;20266;-86
2021/03/13 15:23:26;;;;;;;0.50;0.50;;;8.40;99.90;;;;;;6112152;23;20239;-85
2021/03/13 15:25:55;;;;;;;0.60;0.60;;;8.70;99.90;;;;;;6105064;23;20277;-85
2021/03/13 15:28:22;;;;;;;0.60;0.60;;;5.50;99.90;;;;;;6098362;23;20182;-87
2021/03/13 15:30:49;;;;;;;0.60;0.60;;;5.90;99.90;;;;;;6099074;23;20258;-86
2021/03/13 15:33:16;;;;;;;0.60;0.60;;;5.70;99.90;;;;;;6106514;23;20201;-86
2021/03/13 15:35:45;;;;;;;0.50;0.50;;;7.60;99.90;;;;;;6106588;23;20171;-87
2021/03/13 15:38:20;;;;;;;0.50;0.50;;;7.50;99.90;;;;;;6108695;23;20191;-87
2021/03/13 15:40:55;;;;;;;0.60;0.60;;;7.40;99.90;;;;;;6108272;22;20347;-85
2021/03/13 15:43:32;;;;;;;0.60;0.60;;;5.10;99.90;;;;;;6100036;23;20196;-87
2021/03/13 15:45:59;;;;;;;0.50;0.50;;;4.10;99.90;;;;;;6092948;23;20187;-87
2021/03/13 15:48:26;;;;;;;0.60;0.60;;;5.20;99.90;;;;;;6085362;23;20180;-87
2021/03/13 15:51:06;;;;;;;0.50;0.50;;;5.40;99.90;;;;;;6098634;22;20187;-85
2021/03/13 15:53:32;;;;;;;0.60;0.60;;;5.60;99.90;;;;;;6108191;22;20191;-86
2021/03/13 15:56:02;;;;;;;0.57;0.57;;;4.70;99.90;;;;;;6094204;23;20178;-86
2021/03/13 15:58:29;;;;;;;0.50;0.50;;;7.30;99.90;;;;;;6096884;23;20205;-88
2021/03/13 16:00:58;;;;;;;0.55;0.55;;;7.60;99.90;;;;;;6091742;23;20179;-87
2021/03/13 16:03:36;;;;;;;0.57;0.57;;;6.20;99.90;;;;;;6094905;23;20186;-85
2021/03/13 16:06:02;;;;;;;0.50;0.50;;;5.30;99.90;;;;;;6087467;23;20562;-86
2021/03/13 16:08:32;;;;;;;0.50;0.50;;;5.20;99.90;;;;;;6097579;23;20186;-87
2021/03/13 16:10:58;;;;;;;0.50;0.50;;;5.20;99.90;;;;;;6097068;23;20156;-86
2021/03/13 16:13:24;;;;;;;0.50;0.50;;;5.10;99.90;;;;;;6093883;23;20226;-85
2021/03/13 16:15:51;;;;;;;0.50;0.50;;;4.30;99.90;;;;;;6094135;23;20183;-92
2021/03/13 16:18:17;;;;;;;0.50;0.50;;;7.90;99.90;;;;;;6091876;23;20199;-86
2021/03/13 16:20:48;;;;;;;0.50;0.50;;;5.10;99.90;;;;;;6092395;23;20180;-87
2021/03/13 16:23:15;;;;;;;0.57;0.57;;;4.80;99.90;;;;;;6091589;23;20179;-87
2021/03/13 16:25:42;;;;;;;0.50;0.50;;;7.60;99.90;;;;;;6091031;23;20186;-88
2021/03/13 16:28:08;;;;;;;0.57;0.57;;;7.00;99.90;;;;;;6095462;23;20349;-86
2021/03/13 16:30:35;;;;;;;0.50;0.50;;;4.90;99.90;;;;;;6099210;23;20292;-88
2021/03/13 16:33:01;;;;;;;0.50;0.50;;;8.20;99.90;;;;;;6093824;23;20262;-88
2021/03/13 16:35:31;;;;;;;0.50;0.50;;;5.10;99.90;;;;;;6092889;23;20217;-86
2021/03/13 16:38:06;;;;;;;0.50;0.50;;;5.30;99.90;;;;;;6089651;23;20644;-83
2021/03/13 16:40:33;;;;;;;0.50;0.50;;;8.20;99.90;;;;;;6098509;23;20163;-84
2021/03/13 16:43:02;;;;;;;0.55;0.55;;;4.90;99.90;;;;;;6093781;23;20592;-82
2021/03/13 16:45:32;;;;;;;0.50;0.50;;;6.40;99.90;;;;;;6093272;23;20792;-85
2021/03/13 16:48:01;;;;;;;0.50;0.50;;;5.00;99.90;;;;;;6094667;23;20290;-84
2021/03/13 16:50:27;;;;;;;0.50;0.50;;;5.40;99.90;;;;;;6094773;23;20203;-85
2021/03/13 16:52:53;;;;;;;0.50;0.50;;;4.70;99.90;;;;;;6089734;23;20186;-85
2021/03/13 16:55:21;;;;;;;0.55;0.55;;;6.20;99.90;;;;;;6091070;23;20227;-83
2021/03/13 16:57:47;;;;;;;0.50;0.50;;;4.30;99.90;;;;;;6090363;23;20199;-83
2021/03/13 17:00:16;;;;;;;0.60;0.60;;;5.00;99.90;;;;;;6090552;23;20822;-83
2021/03/13 17:02:43;;;;;;;0.60;0.60;;;5.50;99.90;;;;;;6090627;23;20184;-84
2021/03/13 17:05:10;;;;;;;0.50;0.50;;;7.20;99.90;;;;;;6091793;23;20222;-84
2021/03/13 17:07:37;;;;;;;0.50;0.50;;;5.50;99.90;;;;;;6089361;23;20717;-84
2021/03/13 17:10:04;;;;;;;0.60;0.60;;;4.50;99.90;;;;;;6091218;23;20705;-85
2021/03/13 17:12:31;;;;;;;0.55;0.55;;;5.60;99.90;;;;;;6089657;23;20184;-84
2021/03/13 17:15:01;;;;;;;0.60;0.60;;;5.80;99.90;;;;;;6089812;23;20432;-84
2021/03/13 17:17:29;;;;;;;0.50;0.50;;;6.20;99.90;;;;;;6089462;23;20203;-84
2021/03/13 17:19:55;;;;;;;0.60;0.60;;;5.00;99.90;;;;;;6090214;23;20179;-83
2021/03/13 17:22:21;;;;;;;0.50;0.50;;;6.60;99.90;;;;;;6089941;23;20183;-84
2021/03/13 17:24:48;;;;;;;0.50;0.50;;;5.10;99.90;;;;;;6090995;23;20185;-84
2021/03/13 17:27:14;;;;;;;0.50;0.50;;;4.30;99.90;;;;;;6090749;23;20211;-83
2021/03/13 17:29:41;;;;;;;0.50;0.50;;;6.60;99.90;;;;;;6089943;23;20429;-83
2021/03/13 17:32:12;;;;;;;0.50;0.50;;;5.10;99.90;;;;;;6089664;23;20176;-83
2021/03/13 17:34:39;;;;;;;0.60;0.60;;;5.00;99.90;;;;;;6090002;23;20164;-84
2021/03/13 17:37:05;;;;;;;0.50;0.50;;;5.30;99.90;;;;;;6088852;23;20203;-84
2021/03/13 17:39:32;;;;;;;0.60;0.60;;;4.70;99.90;;;;;;6086397;23;20175;-84
2021/03/13 17:41:58;;;;;;;0.50;0.50;;;7.60;99.90;;;;;;6087396;23;20238;-83
2021/03/13 17:44:29;;;;;;;0.50;0.50;;;5.20;99.90;;;;;;6092108;23;20186;-87
2021/03/13 17:46:56;;;;;;;0.50;0.50;;;7.20;99.90;;;;;;6096829;23;20168;-86
2021/03/13 17:49:22;;;;;;;0.50;0.50;;;5.80;99.90;;;;;;6089425;23;20175;-82
2021/03/13 17:51:49;;;;;;;0.50;0.50;;;4.80;99.90;;;;;;6084100;23;20203;-84
2021/03/13 17:54:15;;;;;;;0.50;0.50;;;5.40;99.90;;;;;;6084929;23;20233;-81
2021/03/13 17:56:41;;;;;;;0.50;0.50;;;5.60;99.90;;;;;;6083197;23;20203;-82
2021/03/13 17:59:07;;;;;;;0.60;0.60;;;5.50;99.90;;;;;;6087391;23;20183;-83
2021/03/13 18:01:34;;;;;;;0.50;0.50;;;5.40;99.90;;;;;;6086809;23;20179;-82
2021/03/13 18:04:01;;;;;;;0.60;0.60;;;5.50;99.90;;;;;;6087286;23;20659;-83
2021/03/13 18:06:27;;;;;;;0.60;0.60;;;5.50;99.90;;;;;;6086476;23;20190;-83
2021/03/13 18:08:53;;;;;;;0.52;0.52;;;5.40;99.90;;;;;;6087112;23;20179;-82
2021/03/13 18:11:20;;;;;;;0.50;0.50;;;5.30;99.90;;;;;;6087101;23;20356;-82
2021/03/13 18:13:46;;;;;;;0.57;0.57;;;5.50;99.90;;;;;;6087091;23;20183;-82
2021/03/13 18:16:12;;;;;;;0.50;0.50;;;5.30;99.90;;;;;;6087602;23;20180;-82
2021/03/13 18:18:41;;;;;;;0.50;0.50;;;5.20;99.90;;;;;;6087532;23;20199;-83
2021/03/13 18:21:08;;;;;;;0.60;0.60;;;5.30;99.90;;;;;;6087678;23;20183;-82
2021/03/13 18:23:35;;;;;;;0.50;0.50;;;5.30;99.90;;;;;;6087130;23;20180;-82
2021/03/13 18:26:01;;;;;;;0.50;0.50;;;5.20;99.90;;;;;;6085419;23;20179;-83
2021/03/13 18:28:28;;;;;;;0.60;0.60;;;5.30;99.90;;;;;;6085781;23;20540;-83
2021/03/13 18:30:55;;;;;;;0.50;0.50;;;5.20;99.90;;;;;;6087354;23;20503;-82
2021/03/13 18:33:21;;;;;;;0.60;0.60;;;5.20;99.90;;;;;;6087308;23;20187;-83
2021/03/13 18:35:47;;;;;;;0.55;0.55;;;5.20;99.90;;;;;;6086935;23;20183;-83
2021/03/13 18:38:15;;;;;;;0.52;0.52;;;6.20;99.90;;;;;;6086743;23;20199;-83
2021/03/13 18:40:43;;;;;;;0.60;0.60;;;6.70;99.90;;;;;;6087410;23;20508;-83
2021/03/13 18:43:09;;;;;;;0.60;0.60;;;7.50;99.90;;;;;;6087603;23;20206;-83
2021/03/13 18:45:40;;;;;;;0.50;0.50;;;6.30;99.90;;;;;;6088307;23;20198;-83
2021/03/13 18:48:07;;;;;;;0.55;0.55;;;7.60;99.90;;;;;;6088177;23;20355;-82
2021/03/13 18:50:33;;;;;;;0.60;0.60;;;5.00;99.90;;;;;;6086891;23;20241;-83
2021/03/13 18:53:00;;;;;;;0.60;0.60;;;4.00;99.90;;;;;;6086661;23;20735;-82
2021/03/13 18:55:27;;;;;;;0.60;0.60;;;4.50;99.90;;;;;;6086935;23;20209;-82
2021/03/13 18:57:53;;;;;;;0.60;0.60;;;4.90;99.90;;;;;;6087266;23;20221;-82
2021/03/13 19:00:20;;;;;;;0.55;0.55;;;4.30;99.90;;;;;;6089400;23;20187;-83
2021/03/13 19:02:47;;;;;;;0.50;0.50;;;4.80;99.90;;;;;;6094817;23;20233;-82
2021/03/13 19:05:14;;;;;;;0.50;0.50;;;4.30;99.90;;;;;;6089062;23;20262;-82
2021/03/13 19:07:43;;;;;;;0.50;0.50;;;4.70;99.90;;;;;;6096650;23;20206;-82
2021/03/13 19:10:10;;;;;;;0.50;0.50;;;4.50;99.90;;;;;;6090392;23;20504;-82
2021/03/13 19:12:38;;;;;;;0.52;0.52;;;4.40;99.90;;;;;;6086553;23;20186;-81
2021/03/13 19:15:06;;;;;;;0.60;0.60;;;5.00;99.90;;;;;;6086879;23;20237;-82
2021/03/13 19:17:32;;;;;;;0.50;0.50;;;4.20;99.90;;;;;;6086401;23;20509;-82
2021/03/13 19:19:59;;;;;;;0.60;0.60;;;4.10;99.90;;;;;;6086444;23;20183;-82
2021/03/13 19:22:25;;;;;;;0.50;0.50;;;4.10;99.90;;;;;;6085534;23;20186;-82
2021/03/13 19:24:52;;;;;;;0.50;0.50;;;4.40;99.90;;;;;;6086013;23;20638;-82
2021/03/13 19:27:18;;;;;;;0.52;0.52;;;4.10;99.90;;;;;;6086796;23;20182;-82
2021/03/13 19:29:45;;;;;;;0.50;0.50;;;4.10;99.90;;;;;;6086769;23;20510;-83
2021/03/13 19:32:11;;;;;;;0.60;0.60;;;4.50;99.90;;;;;;6086410;23;20183;-80
2021/03/13 19:34:38;;;;;;;0.60;0.60;;;4.10;99.90;;;;;;6088494;23;20208;-83
2021/03/13 19:37:05;;;;;;;0.50;0.50;;;4.00;99.90;;;;;;6096613;23;20194;-85
2021/03/13 19:39:32;;;;;;;0.50;0.50;;;4.20;99.90;;;;;;6095953;23;20179;-84
2021/03/13 19:41:58;;;;;;;0.60;0.60;;;4.20;99.90;;;;;;6092080;23;20207;-82
2021/03/13 19:44:24;;;;;;;0.55;0.55;;;4.50;99.90;;;;;;6093100;23;20404;-82
2021/03/13 19:46:51;;;;;;;0.50;0.50;;;3.60;99.90;;;;;;6089470;23;20478;-84
2021/03/13 19:49:17;;;;;;;0.60;0.60;;;4.40;99.90;;;;;;6088795;23;20242;-83
2021/03/13 19:51:44;;;;;;;0.60;0.60;;;4.40;99.90;;;;;;6087553;23;20253;-83
2021/03/13 19:54:10;;;;;;;0.60;0.60;;;4.50;99.90;;;;;;6088758;23;20289;-84
2021/03/13 19:56:36;;;;;;;0.50;0.50;;;4.60;99.90;;;;;;6088799;23;20517;-84
2021/03/13 19:59:03;;;;;;;0.52;0.52;;;4.40;99.90;;;;;;6088557;23;20179;-83
2021/03/13 20:01:29;;;;;;;0.50;0.50;;;4.60;99.90;;;;;;6088530;23;20687;-83
2021/03/13 20:03:56;;;;;;;0.50;0.50;;;4.60;99.90;;;;;;6090152;23;20648;-83
2021/03/13 20:06:22;;;;;;;0.52;0.52;;;4.70;99.90;;;;;;6088078;23;20187;-83
2021/03/13 20:08:49;;;;;;;0.50;0.50;;;4.10;99.90;;;;;;6088845;23;20179;-82
2021/03/13 20:11:15;;;;;;;0.50;0.50;;;4.80;99.90;;;;;;6089350;23;20183;-83